createdAt,value
2018-01-02T00:00:03.859Z,26.24
2018-01-02T00:00:32.107Z,26.26
2018-01-02T00:01:00.765Z,26.29
2018-01-02T00:01:29.307Z,26.27
2018-01-02T00:01:57.831Z,26.26
2018-01-02T00:02:26.469Z,26.29
2018-01-02T00:02:55.123Z,26.23
2018-01-02T00:03:23.816Z,26.18
2018-01-02T00:03:52.341Z,26.23
2018-01-02T00:04:20.862Z,26.1
2018-01-02T00:04:49.493Z,26.18
2018-01-02T00:05:18.073Z,26.22
2018-01-02T00:05:46.566Z,26.11
2018-01-02T00:06:15.007Z,26.13
2018-01-02T00:06:43.616Z,26.06
2018-01-02T00:07:12.129Z,26.13
2018-01-02T00:07:40.619Z,26.18
2018-01-02T00:08:09.034Z,26.15
2018-01-02T00:08:37.616Z,26.22
2018-01-02T00:09:06.174Z,26.15
2018-01-02T00:09:34.755Z,26.18
2018-01-02T00:10:03.168Z,26.13
2018-01-02T00:10:31.756Z,26.16
2018-01-02T00:11:00.168Z,26.13
2018-01-02T00:11:28.737Z,26.18
2018-01-02T00:11:57.462Z,26.16
2018-01-02T00:12:25.983Z,26.19
2018-01-02T00:12:54.610Z,26.22
2018-01-02T00:13:23.243Z,26.15
2018-01-02T00:13:51.751Z,26.04
2018-01-02T00:14:20.218Z,26.15
2018-01-02T00:14:48.554Z,26.08
2018-01-02T00:15:17.150Z,26.13
2018-01-02T00:15:45.619Z,26.1
2018-01-02T00:16:14.184Z,26.15
2018-01-02T00:16:42.778Z,26.06
2018-01-02T00:17:11.259Z,26.1
2018-01-02T00:17:39.879Z,26.11
2018-01-02T00:18:08.500Z,26.06
2018-01-02T00:18:36.789Z,26.06
2018-01-02T00:19:05.163Z,26.15
2018-01-02T00:19:33.560Z,26.06
2018-01-02T00:20:01.999Z,26.11
2018-01-02T00:20:30.512Z,26.01
2018-01-02T00:20:59.020Z,26.01
2018-01-02T00:21:27.535Z,26.1
2018-01-02T00:21:55.964Z,26.15
2018-01-02T00:22:24.594Z,26.06
2018-01-02T00:22:53.117Z,26.06
2018-01-02T00:23:21.725Z,26.03
2018-01-02T00:23:50.328Z,26.06
2018-01-02T00:24:18.777Z,26.03
2018-01-02T00:24:47.241Z,26.1
2018-01-02T00:25:15.830Z,26.04
2018-01-02T00:25:44.372Z,25.99
2018-01-02T00:26:13.493Z,26.1
2018-01-02T00:26:42.055Z,26.11
2018-01-02T00:27:10.919Z,26.06
2018-01-02T00:27:39.326Z,26.04
2018-01-02T00:28:07.819Z,26.03
2018-01-02T00:28:36.299Z,26.06
2018-01-02T00:29:04.941Z,26.04
2018-01-02T00:29:33.519Z,26.01
2018-01-02T00:30:02.005Z,25.99
2018-01-02T00:30:30.654Z,26.07
2018-01-02T00:30:59.267Z,26.03
2018-01-02T00:31:27.940Z,26.04
2018-01-02T00:31:56.437Z,26.07
2018-01-02T00:32:24.931Z,26.04
2018-01-02T00:32:53.553Z,26.01
2018-01-02T00:33:22.078Z,26.03
2018-01-02T00:33:50.673Z,25.96
2018-01-02T00:34:19.239Z,25.96
2018-01-02T00:34:47.841Z,25.93
2018-01-02T00:35:16.260Z,25.86
2018-01-02T00:35:44.756Z,25.99
2018-01-02T00:36:13.424Z,25.89
2018-01-02T00:36:41.975Z,26.04
2018-01-02T00:37:10.544Z,25.98
2018-01-02T00:37:39.100Z,25.95
2018-01-02T00:38:07.592Z,25.95
2018-01-02T00:38:36.175Z,25.93
2018-01-02T00:39:04.666Z,25.92
2018-01-02T00:39:33.296Z,25.89
2018-01-02T00:40:01.787Z,25.92
2018-01-02T00:40:30.287Z,25.89
2018-01-02T00:40:58.911Z,25.83
2018-01-02T00:41:27.396Z,25.89
2018-01-02T00:41:56.016Z,25.88
2018-01-02T00:42:24.681Z,25.85
2018-01-02T00:42:53.251Z,25.85
2018-01-02T00:43:21.838Z,25.86
2018-01-02T00:43:50.268Z,25.86
2018-01-02T00:44:18.828Z,25.83
2018-01-02T00:44:47.464Z,25.83
2018-01-02T00:45:15.940Z,25.76
2018-01-02T00:45:44.557Z,25.78
2018-01-02T00:46:13.013Z,25.83
2018-01-02T00:46:41.438Z,25.73
2018-01-02T00:47:10.331Z,25.77
2018-01-02T00:47:38.760Z,25.76
2018-01-02T00:48:07.305Z,25.74
2018-01-02T00:48:35.679Z,25.74
2018-01-02T00:49:04.149Z,25.8
2018-01-02T00:49:32.681Z,25.8
2018-01-02T00:50:01.294Z,25.8
2018-01-02T00:50:29.820Z,25.78
2018-01-02T00:50:58.334Z,25.76
2018-01-02T00:51:26.968Z,25.74
2018-01-02T00:51:55.540Z,25.74
2018-01-02T00:52:24.173Z,25.7
2018-01-02T00:52:52.609Z,25.67
2018-01-02T00:53:21.117Z,25.73
2018-01-02T00:53:49.640Z,25.59
2018-01-02T00:54:18.203Z,25.67
2018-01-02T00:54:46.767Z,25.7
2018-01-02T00:55:15.345Z,25.62
2018-01-02T00:55:43.782Z,25.61
2018-01-02T00:56:12.182Z,25.61
2018-01-02T00:56:40.405Z,25.59
2018-01-02T00:57:09.130Z,25.61
2018-01-02T00:57:37.544Z,25.62
2018-01-02T00:58:06.141Z,25.61
2018-01-02T00:58:34.485Z,25.61
2018-01-02T00:59:02.982Z,25.59
2018-01-02T00:59:31.481Z,25.58
2018-01-02T00:59:59.990Z,25.67
2018-01-02T01:00:28.473Z,25.7
2018-01-02T01:00:56.987Z,25.61
2018-01-02T01:01:25.581Z,25.61
2018-01-02T01:01:54.084Z,25.62
2018-01-02T01:02:22.724Z,25.56
2018-01-02T01:02:51.116Z,25.67
2018-01-02T01:03:19.699Z,25.63
2018-01-02T01:03:48.339Z,25.63
2018-01-02T01:04:16.927Z,25.62
2018-01-02T01:04:45.531Z,25.61
2018-01-02T01:05:14.055Z,25.66
2018-01-02T01:05:42.563Z,25.63
2018-01-02T01:06:11.082Z,25.54
2018-01-02T01:06:39.614Z,25.62
2018-01-02T01:07:08.182Z,25.63
2018-01-02T01:07:36.642Z,25.58
2018-01-02T01:08:05.178Z,25.63
2018-01-02T01:08:33.684Z,25.62
2018-01-02T01:09:02.239Z,25.63
2018-01-02T01:09:30.811Z,25.43
2018-01-02T01:09:59.424Z,25.61
2018-01-02T01:10:27.753Z,25.59
2018-01-02T01:10:56.215Z,25.62
2018-01-02T01:11:24.752Z,25.62
2018-01-02T01:11:53.274Z,25.52
2018-01-02T01:12:22.708Z,25.58
2018-01-02T01:12:51.300Z,25.55
2018-01-02T01:13:19.847Z,25.59
2018-01-02T01:13:48.365Z,25.58
2018-01-02T01:14:16.883Z,25.62
2018-01-02T01:14:45.306Z,25.55
2018-01-02T01:15:13.858Z,25.58
2018-01-02T01:15:42.385Z,25.56
2018-01-02T01:16:10.699Z,25.52
2018-01-02T01:16:39.139Z,25.63
2018-01-02T01:17:07.757Z,25.61
2018-01-02T01:17:36.138Z,25.56
2018-01-02T01:18:04.660Z,25.44
2018-01-02T01:18:33.157Z,25.52
2018-01-02T01:19:01.550Z,25.51
2018-01-02T01:19:30.006Z,25.51
2018-01-02T01:19:58.465Z,25.46
2018-01-02T01:20:27.048Z,25.51
2018-01-02T01:20:55.523Z,25.52
2018-01-02T01:21:24.049Z,25.52
2018-01-02T01:21:52.659Z,25.51
2018-01-02T01:22:21.221Z,25.48
2018-01-02T01:22:49.698Z,25.59
2018-01-02T01:23:18.199Z,25.52
2018-01-02T01:23:46.739Z,25.59
2018-01-02T01:24:15.320Z,25.58
2018-01-02T01:24:43.892Z,25.52
2018-01-02T01:25:12.550Z,25.59
2018-01-02T01:25:41.148Z,25.52
2018-01-02T01:26:09.771Z,25.55
2018-01-02T01:26:38.351Z,25.55
2018-01-02T01:27:06.978Z,25.43
2018-01-02T01:27:35.803Z,25.54
2018-01-02T01:28:04.252Z,25.49
2018-01-02T01:28:32.853Z,25.46
2018-01-02T01:29:01.358Z,25.44
2018-01-02T01:29:29.834Z,25.54
2018-01-02T01:29:58.481Z,25.48
2018-01-02T01:30:27.054Z,25.49
2018-01-02T01:30:55.644Z,25.48
2018-01-02T01:31:23.975Z,25.49
2018-01-02T01:31:52.478Z,25.51
2018-01-02T01:32:20.966Z,25.46
2018-01-02T01:32:49.388Z,25.51
2018-01-02T01:33:17.868Z,25.48
2018-01-02T01:33:46.479Z,25.4
2018-01-02T01:34:15.081Z,25.43
2018-01-02T01:34:43.587Z,25.46
2018-01-02T01:35:12.242Z,25.43
2018-01-02T01:35:40.722Z,25.46
2018-01-02T01:36:09.264Z,25.46
2018-01-02T01:36:37.883Z,25.43
2018-01-02T01:37:06.475Z,25.43
2018-01-02T01:37:34.892Z,25.51
2018-01-02T01:38:03.295Z,25.44
2018-01-02T01:38:31.878Z,25.48
2018-01-02T01:39:00.497Z,25.44
2018-01-02T01:39:28.977Z,25.4
2018-01-02T01:39:57.450Z,25.41
2018-01-02T01:40:26.077Z,25.4
2018-01-02T01:40:54.643Z,25.39
2018-01-02T01:41:23.318Z,25.37
2018-01-02T01:41:51.764Z,25.33
2018-01-02T01:42:20.274Z,25.4
2018-01-02T01:42:48.985Z,25.4
2018-01-02T01:43:17.526Z,25.34
2018-01-02T01:43:46.191Z,25.31
2018-01-02T01:44:14.760Z,25.34
2018-01-02T01:44:43.288Z,25.36
2018-01-02T01:45:11.898Z,25.31
2018-01-02T01:45:40.406Z,25.31
2018-01-02T01:46:09.009Z,25.33
2018-01-02T01:46:37.612Z,25.36
2018-01-02T01:47:06.073Z,25.29
2018-01-02T01:47:34.571Z,25.36
2018-01-02T01:48:03.060Z,25.36
2018-01-02T01:48:31.552Z,25.3
2018-01-02T01:48:59.968Z,25.34
2018-01-02T01:49:28.461Z,25.33
2018-01-02T01:49:56.983Z,25.36
2018-01-02T01:50:25.525Z,25.33
2018-01-02T01:50:54.019Z,25.39
2018-01-02T01:51:22.625Z,25.34
2018-01-02T01:51:51.024Z,25.31
2018-01-02T01:52:19.635Z,25.33
2018-01-02T01:52:48.278Z,25.33
2018-01-02T01:53:16.829Z,25.4
2018-01-02T01:53:45.490Z,25.37
2018-01-02T01:54:13.980Z,25.34
2018-01-02T01:54:42.187Z,25.39
2018-01-02T01:55:10.848Z,25.39
2018-01-02T01:55:39.224Z,25.37
2018-01-02T01:56:07.820Z,25.36
2018-01-02T01:56:36.430Z,25.37
2018-01-02T01:57:04.883Z,25.31
2018-01-02T01:57:33.295Z,25.39
2018-01-02T01:58:02.153Z,25.36
2018-01-02T01:58:30.663Z,25.33
2018-01-02T01:58:59.131Z,25.34
2018-01-02T01:59:27.606Z,25.33
2018-01-02T01:59:55.896Z,25.34
2018-01-02T02:00:24.493Z,25.29
2018-01-02T02:00:52.940Z,25.3
2018-01-02T02:01:21.489Z,25.3
2018-01-02T02:01:50.104Z,25.33
2018-01-02T02:02:18.608Z,25.24
2018-01-02T02:02:47.109Z,25.21
2018-01-02T02:03:15.706Z,25.24
2018-01-02T02:03:44.324Z,25.25
2018-01-02T02:04:12.914Z,25.3
2018-01-02T02:04:41.242Z,25.3
2018-01-02T02:05:09.865Z,25.25
2018-01-02T02:05:38.416Z,25.14
2018-01-02T02:06:06.986Z,25.19
2018-01-02T02:06:35.506Z,25.21
2018-01-02T02:07:04.034Z,25.25
2018-01-02T02:07:32.546Z,25.25
2018-01-02T02:08:01.291Z,25.21
2018-01-02T02:08:30.019Z,25.15
2018-01-02T02:08:58.398Z,25.15
2018-01-02T02:09:27.009Z,25.19
2018-01-02T02:09:55.585Z,25.21
2018-01-02T02:10:24.204Z,25.14
2018-01-02T02:10:52.516Z,25.11
2018-01-02T02:11:20.928Z,25.19
2018-01-02T02:11:49.420Z,25.25
2018-01-02T02:12:18.009Z,25.09
2018-01-02T02:12:46.513Z,25.12
2018-01-02T02:13:15.183Z,25.14
2018-01-02T02:13:43.678Z,25.14
2018-01-02T02:14:12.157Z,25.15
2018-01-02T02:14:40.768Z,25.14
2018-01-02T02:15:09.104Z,25.16
2018-01-02T02:15:37.730Z,25.14
2018-01-02T02:16:06.308Z,25.16
2018-01-02T02:16:34.784Z,25.14
2018-01-02T02:17:03.402Z,25.25
2018-01-02T02:17:31.857Z,25.24
2018-01-02T02:18:00.310Z,25.21
2018-01-02T02:18:28.776Z,25.25
2018-01-02T02:18:57.249Z,25.26
2018-01-02T02:19:25.755Z,25.18
2018-01-02T02:19:54.281Z,25.19
2018-01-02T02:20:22.765Z,25.12
2018-01-02T02:20:51.333Z,25.22
2018-01-02T02:21:19.852Z,25.14
2018-01-02T02:21:48.455Z,25.12
2018-01-02T02:22:16.856Z,25.15
2018-01-02T02:22:45.269Z,25.14
2018-01-02T02:23:13.761Z,25.22
2018-01-02T02:23:42.388Z,25.16
2018-01-02T02:24:10.798Z,25.22
2018-01-02T02:24:39.176Z,25.22
2018-01-02T02:25:07.690Z,25.15
2018-01-02T02:25:36.106Z,25.25
2018-01-02T02:26:04.545Z,25.26
2018-01-02T02:26:32.944Z,25.16
2018-01-02T02:27:01.531Z,25.11
2018-01-02T02:27:30.042Z,25.11
2018-01-02T02:27:58.867Z,25.14
2018-01-02T02:28:27.391Z,25.15
2018-01-02T02:28:55.969Z,25.12
2018-01-02T02:29:24.458Z,25.12
2018-01-02T02:29:52.859Z,25.14
2018-01-02T02:30:21.484Z,25.14
2018-01-02T02:30:49.987Z,25.12
2018-01-02T02:31:18.621Z,25
2018-01-02T02:31:46.976Z,25.14
2018-01-02T02:32:15.505Z,25.11
2018-01-02T02:32:43.876Z,25.12
2018-01-02T02:33:12.461Z,25
2018-01-02T02:33:40.955Z,25.09
2018-01-02T02:34:09.741Z,25.12
2018-01-02T02:34:38.397Z,25.11
2018-01-02T02:35:07.001Z,25.12
2018-01-02T02:35:35.626Z,25.12
2018-01-02T02:36:04.210Z,25.12
2018-01-02T02:36:32.799Z,25.03
2018-01-02T02:37:01.367Z,25.03
2018-01-02T02:37:29.879Z,25.01
2018-01-02T02:37:58.519Z,25.06
2018-01-02T02:38:27.052Z,25.06
2018-01-02T02:38:55.559Z,25.06
2018-01-02T02:39:23.961Z,24.99
2018-01-02T02:39:52.586Z,24.97
2018-01-02T02:40:21.157Z,25.01
2018-01-02T02:40:49.742Z,25.04
2018-01-02T02:41:18.133Z,25.04
2018-01-02T02:41:46.681Z,24.99
2018-01-02T02:42:15.107Z,25
2018-01-02T02:42:43.705Z,25.03
2018-01-02T02:43:12.412Z,24.97
2018-01-02T02:43:40.945Z,24.97
2018-01-02T02:44:09.461Z,24.99
2018-01-02T02:44:37.932Z,25.01
2018-01-02T02:45:06.450Z,24.99
2018-01-02T02:45:34.903Z,25.06
2018-01-02T02:46:03.553Z,25.04
2018-01-02T02:46:32.191Z,25.04
2018-01-02T02:47:00.788Z,25.01
2018-01-02T02:47:29.223Z,25.04
2018-01-02T02:47:57.581Z,24.99
2018-01-02T02:48:26.131Z,25.03
2018-01-02T02:48:54.789Z,24.99
2018-01-02T02:49:23.235Z,25.01
2018-01-02T02:49:52.192Z,25.01
2018-01-02T02:50:20.589Z,24.99
2018-01-02T02:50:49.176Z,24.97
2018-01-02T02:51:17.770Z,25.01
2018-01-02T02:51:46.276Z,24.99
2018-01-02T02:52:14.886Z,25.01
2018-01-02T02:52:43.479Z,25
2018-01-02T02:53:11.960Z,25.03
2018-01-02T02:53:40.484Z,25.03
2018-01-02T02:54:08.878Z,25.06
2018-01-02T02:54:37.293Z,24.99
2018-01-02T02:55:05.937Z,24.96
2018-01-02T02:55:34.441Z,25
2018-01-02T02:56:02.911Z,24.96
2018-01-02T02:56:31.518Z,24.89
2018-01-02T02:57:00.031Z,24.85
2018-01-02T02:57:28.613Z,24.92
2018-01-02T02:57:57.141Z,24.96
2018-01-02T02:58:26.162Z,24.96
2018-01-02T02:58:54.756Z,24.92
2018-01-02T02:59:23.251Z,24.89
2018-01-02T02:59:51.761Z,24.88
2018-01-02T03:00:20.403Z,24.86
2018-01-02T03:00:48.910Z,24.89
2018-01-02T03:01:17.543Z,24.92
2018-01-02T03:01:45.921Z,24.89
2018-01-02T03:02:14.427Z,24.86
2018-01-02T03:02:43.023Z,24.84
2018-01-02T03:03:11.440Z,24.92
2018-01-02T03:03:39.944Z,24.84
2018-01-02T03:04:08.515Z,24.86
2018-01-02T03:04:37.005Z,24.84
2018-01-02T03:05:05.618Z,24.84
2018-01-02T03:05:34.252Z,24.88
2018-01-02T03:06:02.799Z,24.84
2018-01-02T03:06:31.406Z,24.84
2018-01-02T03:06:59.812Z,24.85
2018-01-02T03:07:28.270Z,24.82
2018-01-02T03:07:56.863Z,24.81
2018-01-02T03:08:25.472Z,24.86
2018-01-02T03:08:53.997Z,24.82
2018-01-02T03:09:22.434Z,24.84
2018-01-02T03:09:51.078Z,24.79
2018-01-02T03:10:19.650Z,24.86
2018-01-02T03:10:48.202Z,24.81
2018-01-02T03:11:16.817Z,24.81
2018-01-02T03:11:45.296Z,24.79
2018-01-02T03:12:13.757Z,24.82
2018-01-02T03:12:42.137Z,24.81
2018-01-02T03:13:10.623Z,24.81
2018-01-02T03:13:39.192Z,24.79
2018-01-02T03:14:07.791Z,24.88
2018-01-02T03:14:36.302Z,24.82
2018-01-02T03:15:04.799Z,24.86
2018-01-02T03:15:33.270Z,24.84
2018-01-02T03:16:01.837Z,24.93
2018-01-02T03:16:30.438Z,24.82
2018-01-02T03:16:58.961Z,24.94
2018-01-02T03:17:27.398Z,24.84
2018-01-02T03:17:55.952Z,24.89
2018-01-02T03:18:24.458Z,24.89
2018-01-02T03:18:52.989Z,24.85
2018-01-02T03:19:21.574Z,24.89
2018-01-02T03:19:50.161Z,24.88
2018-01-02T03:20:18.629Z,24.88
2018-01-02T03:20:47.223Z,24.88
2018-01-02T03:21:15.739Z,24.86
2018-01-02T03:21:44.264Z,24.84
2018-01-02T03:22:12.704Z,24.81
2018-01-02T03:22:41.285Z,24.79
2018-01-02T03:23:09.970Z,24.79
2018-01-02T03:23:38.496Z,24.82
2018-01-02T03:24:06.872Z,24.82
2018-01-02T03:24:35.273Z,24.81
2018-01-02T03:25:03.928Z,24.85
2018-01-02T03:25:32.604Z,24.79
2018-01-02T03:26:01.135Z,24.82
2018-01-02T03:26:29.626Z,24.79
2018-01-02T03:26:58.229Z,24.85
2018-01-02T03:27:26.760Z,24.82
2018-01-02T03:27:55.054Z,24.79
2018-01-02T03:28:23.858Z,24.78
2018-01-02T03:28:52.320Z,24.77
2018-01-02T03:29:20.849Z,24.77
2018-01-02T03:29:49.486Z,24.77
2018-01-02T03:30:18.027Z,24.82
2018-01-02T03:30:46.408Z,24.84
2018-01-02T03:31:14.952Z,24.79
2018-01-02T03:31:43.438Z,24.85
2018-01-02T03:32:12.023Z,24.79
2018-01-02T03:32:40.456Z,24.79
2018-01-02T03:33:08.861Z,24.85
2018-01-02T03:33:37.390Z,24.82
2018-01-02T03:34:06.021Z,24.81
2018-01-02T03:34:34.500Z,24.84
2018-01-02T03:35:02.994Z,24.81
2018-01-02T03:35:31.406Z,24.79
2018-01-02T03:35:59.865Z,24.75
2018-01-02T03:36:28.361Z,24.85
2018-01-02T03:36:56.866Z,24.77
2018-01-02T03:37:25.467Z,24.75
2018-01-02T03:37:54.118Z,24.75
2018-01-02T03:38:22.648Z,24.63
2018-01-02T03:38:51.267Z,24.77
2018-01-02T03:39:19.823Z,24.65
2018-01-02T03:39:48.338Z,24.69
2018-01-02T03:40:16.719Z,24.62
2018-01-02T03:40:45.261Z,24.59
2018-01-02T03:41:13.903Z,24.68
2018-01-02T03:41:42.440Z,24.61
2018-01-02T03:42:11.023Z,24.59
2018-01-02T03:42:39.541Z,24.61
2018-01-02T03:43:07.957Z,24.62
2018-01-02T03:43:36.533Z,24.59
2018-01-02T03:44:05.165Z,24.65
2018-01-02T03:44:33.615Z,24.58
2018-01-02T03:45:02.174Z,24.56
2018-01-02T03:45:30.685Z,24.58
2018-01-02T03:45:59.076Z,24.61
2018-01-02T03:46:27.567Z,24.63
2018-01-02T03:46:56.064Z,24.61
2018-01-02T03:47:24.647Z,24.61
2018-01-02T03:47:53.096Z,24.68
2018-01-02T03:48:21.671Z,24.56
2018-01-02T03:48:50.261Z,24.55
2018-01-02T03:49:18.903Z,24.65
2018-01-02T03:49:47.282Z,24.55
2018-01-02T03:50:15.773Z,24.51
2018-01-02T03:50:44.396Z,24.58
2018-01-02T03:51:12.989Z,24.51
2018-01-02T03:51:41.393Z,24.51
2018-01-02T03:52:09.859Z,24.48
2018-01-02T03:52:38.262Z,24.56
2018-01-02T03:53:06.605Z,24.61
2018-01-02T03:53:35.235Z,24.55
2018-01-02T03:54:03.821Z,24.56
2018-01-02T03:54:32.470Z,24.66
2018-01-02T03:55:00.995Z,24.56
2018-01-02T03:55:29.629Z,24.55
2018-01-02T03:55:58.006Z,24.59
2018-01-02T03:56:26.633Z,24.51
2018-01-02T03:56:55.873Z,24.58
2018-01-02T03:57:24.399Z,24.59
2018-01-02T03:57:52.869Z,24.56
2018-01-02T03:58:21.388Z,24.59
2018-01-02T03:58:50.206Z,24.44
2018-01-02T03:59:18.808Z,24.5
2018-01-02T03:59:47.302Z,24.51
2018-01-02T04:00:15.917Z,24.47
2018-01-02T04:00:44.314Z,24.44
2018-01-02T04:01:12.911Z,24.51
2018-01-02T04:01:41.596Z,24.58
2018-01-02T04:02:10.244Z,24.53
2018-01-02T04:02:38.787Z,24.5
2018-01-02T04:03:07.317Z,24.55
2018-01-02T04:03:35.926Z,24.5
2018-01-02T04:04:04.573Z,24.53
2018-01-02T04:04:33.160Z,24.44
2018-01-02T04:05:01.719Z,24.56
2018-01-02T04:05:30.314Z,24.56
2018-01-02T04:05:58.955Z,24.69
2018-01-02T04:06:27.454Z,24.56
2018-01-02T04:06:56.080Z,24.51
2018-01-02T04:07:24.670Z,24.55
2018-01-02T04:07:53.110Z,24.56
2018-01-02T04:08:21.563Z,24.55
2018-01-02T04:08:49.820Z,24.56
2018-01-02T04:09:18.383Z,24.59
2018-01-02T04:09:46.869Z,24.53
2018-01-02T04:10:15.505Z,24.51
2018-01-02T04:10:44.032Z,24.59
2018-01-02T04:11:12.666Z,24.55
2018-01-02T04:11:41.243Z,24.59
2018-01-02T04:12:09.822Z,24.48
2018-01-02T04:12:38.417Z,24.53
2018-01-02T04:13:06.917Z,24.47
2018-01-02T04:13:35.372Z,24.41
2018-01-02T04:14:03.940Z,24.51
2018-01-02T04:14:32.581Z,24.38
2018-01-02T04:15:01.100Z,24.37
2018-01-02T04:15:29.590Z,24.5
2018-01-02T04:15:58.114Z,24.44
2018-01-02T04:16:26.689Z,24.37
2018-01-02T04:16:55.231Z,24.44
2018-01-02T04:17:23.613Z,24.37
2018-01-02T04:17:51.943Z,24.31
2018-01-02T04:18:20.558Z,24.36
2018-01-02T04:18:49.209Z,24.4
2018-01-02T04:19:17.800Z,24.31
2018-01-02T04:19:46.204Z,24.41
2018-01-02T04:20:14.627Z,24.38
2018-01-02T04:20:43.264Z,24.37
2018-01-02T04:21:11.784Z,24.36
2018-01-02T04:21:40.176Z,24.38
2018-01-02T04:22:08.805Z,24.41
2018-01-02T04:22:37.422Z,24.41
2018-01-02T04:23:05.913Z,24.37
2018-01-02T04:23:34.504Z,24.31
2018-01-02T04:24:03.128Z,24.38
2018-01-02T04:24:31.741Z,24.34
2018-01-02T04:25:00.142Z,24.34
2018-01-02T04:25:28.534Z,24.41
2018-01-02T04:25:57.093Z,24.37
2018-01-02T04:26:25.558Z,24.38
2018-01-02T04:26:54.186Z,24.37
2018-01-02T04:27:22.695Z,24.31
2018-01-02T04:27:51.240Z,24.34
2018-01-02T04:28:19.723Z,24.32
2018-01-02T04:28:48.214Z,24.32
2018-01-02T04:29:17.000Z,24.31
2018-01-02T04:29:45.609Z,24.38
2018-01-02T04:30:14.234Z,24.31
2018-01-02T04:30:42.865Z,24.32
2018-01-02T04:31:11.478Z,24.28
2018-01-02T04:31:40.018Z,24.29
2018-01-02T04:32:08.623Z,24.31
2018-01-02T04:32:37.184Z,24.31
2018-01-02T04:33:05.751Z,24.32
2018-01-02T04:33:34.344Z,24.28
2018-01-02T04:34:02.921Z,24.28
2018-01-02T04:34:31.517Z,24.21
2018-01-02T04:35:00.104Z,24.21
2018-01-02T04:35:28.631Z,24.25
2018-01-02T04:35:57.123Z,24.18
2018-01-02T04:36:25.741Z,24.21
2018-01-02T04:36:54.068Z,24.18
2018-01-02T04:37:22.587Z,24.19
2018-01-02T04:37:51.208Z,24.24
2018-01-02T04:38:19.701Z,24.18
2018-01-02T04:38:48.197Z,24.19
2018-01-02T04:39:16.706Z,24.24
2018-01-02T04:39:45.136Z,24.22
2018-01-02T04:40:13.662Z,24.21
2018-01-02T04:40:42.073Z,24.21
2018-01-02T04:41:10.604Z,24.24
2018-01-02T04:41:39.081Z,24.24
2018-01-02T04:42:07.735Z,24.28
2018-01-02T04:42:36.248Z,24.24
2018-01-02T04:43:04.732Z,24.18
2018-01-02T04:43:33.134Z,24.21
2018-01-02T04:44:01.888Z,24.21
2018-01-02T04:44:30.465Z,24.25
2018-01-02T04:44:59.101Z,24.22
2018-01-02T04:45:27.613Z,24.21
2018-01-02T04:45:56.072Z,24.19
2018-01-02T04:46:24.494Z,24.06
2018-01-02T04:46:53.006Z,24.22
2018-01-02T04:47:21.538Z,24.16
2018-01-02T04:47:49.973Z,24.13
2018-01-02T04:48:18.569Z,24.06
2018-01-02T04:48:47.063Z,24.06
2018-01-02T04:49:15.629Z,24.04
2018-01-02T04:49:44.050Z,24.01
2018-01-02T04:50:12.670Z,24.04
2018-01-02T04:50:41.148Z,24.03
2018-01-02T04:51:09.738Z,24
2018-01-02T04:51:38.104Z,23.99
2018-01-02T04:52:06.734Z,24.03
2018-01-02T04:52:35.106Z,24.06
2018-01-02T04:53:03.621Z,24.03
2018-01-02T04:53:32.032Z,23.96
2018-01-02T04:54:00.510Z,23.96
2018-01-02T04:54:29.976Z,23.99
2018-01-02T04:54:58.463Z,24
2018-01-02T04:55:26.962Z,23.92
2018-01-02T04:55:55.570Z,23.92
2018-01-02T04:56:24.162Z,23.92
2018-01-02T04:56:52.526Z,23.95
2018-01-02T04:57:21.005Z,23.92
2018-01-02T04:57:49.491Z,23.94
2018-01-02T04:58:17.980Z,23.92
2018-01-02T04:58:46.384Z,23.91
2018-01-02T04:59:15.401Z,23.96
2018-01-02T04:59:43.893Z,23.96
2018-01-02T05:00:12.439Z,23.94
2018-01-02T05:00:40.949Z,23.94
2018-01-02T05:01:09.576Z,23.92
2018-01-02T05:01:38.053Z,23.92
2018-01-02T05:02:06.687Z,23.91
2018-01-02T05:02:35.204Z,23.95
2018-01-02T05:03:03.733Z,23.95
2018-01-02T05:03:32.359Z,23.89
2018-01-02T05:04:00.838Z,23.94
2018-01-02T05:04:29.323Z,23.94
2018-01-02T05:04:57.943Z,23.92
2018-01-02T05:05:26.535Z,23.91
2018-01-02T05:05:54.967Z,24.06
2018-01-02T05:06:23.420Z,23.96
2018-01-02T05:06:51.964Z,24.07
2018-01-02T05:07:20.592Z,24
2018-01-02T05:07:49.032Z,23.99
2018-01-02T05:08:17.461Z,24.06
2018-01-02T05:08:45.854Z,24.04
2018-01-02T05:09:14.371Z,24.04
2018-01-02T05:09:42.820Z,24.03
2018-01-02T05:10:11.400Z,24.03
2018-01-02T05:10:39.988Z,24.07
2018-01-02T05:11:08.484Z,24.06
2018-01-02T05:11:36.994Z,24.06
2018-01-02T05:12:05.529Z,24.09
2018-01-02T05:12:34.100Z,24.1
2018-01-02T05:13:02.735Z,24.03
2018-01-02T05:13:31.413Z,24.1
2018-01-02T05:13:59.925Z,24.09
2018-01-02T05:14:28.522Z,24.04
2018-01-02T05:14:56.970Z,24.19
2018-01-02T05:15:25.480Z,24.18
2018-01-02T05:15:53.980Z,24.14
2018-01-02T05:16:22.442Z,24.06
2018-01-02T05:16:50.931Z,24.1
2018-01-02T05:17:19.354Z,24.09
2018-01-02T05:17:47.983Z,24.1
2018-01-02T05:18:16.565Z,24.06
2018-01-02T05:18:45.043Z,24
2018-01-02T05:19:13.639Z,24.06
2018-01-02T05:19:42.383Z,24.03
2018-01-02T05:20:10.857Z,24
2018-01-02T05:20:39.228Z,24.09
2018-01-02T05:21:07.748Z,23.95
2018-01-02T05:21:36.223Z,23.99
2018-01-02T05:22:04.708Z,24.06
2018-01-02T05:22:33.227Z,24
2018-01-02T05:23:01.679Z,23.95
2018-01-02T05:23:30.205Z,24
2018-01-02T05:23:58.792Z,24
2018-01-02T05:24:27.306Z,23.94
2018-01-02T05:24:55.778Z,23.99
2018-01-02T05:25:24.254Z,23.95
2018-01-02T05:25:52.762Z,24
2018-01-02T05:26:21.264Z,23.95
2018-01-02T05:26:49.822Z,23.91
2018-01-02T05:27:18.279Z,23.95
2018-01-02T05:27:46.803Z,23.92
2018-01-02T05:28:15.400Z,23.94
2018-01-02T05:28:43.847Z,23.94
2018-01-02T05:29:12.360Z,23.94
2018-01-02T05:29:41.128Z,23.94
2018-01-02T05:30:09.712Z,23.95
2018-01-02T05:30:38.347Z,23.99
2018-01-02T05:31:06.951Z,23.88
2018-01-02T05:31:35.352Z,23.89
2018-01-02T05:32:03.967Z,23.91
2018-01-02T05:32:32.501Z,23.95
2018-01-02T05:33:01.047Z,23.88
2018-01-02T05:33:29.673Z,23.95
2018-01-02T05:33:58.269Z,23.96
2018-01-02T05:34:26.665Z,23.88
2018-01-02T05:34:54.998Z,23.96
2018-01-02T05:35:23.499Z,23.94
2018-01-02T05:35:52.080Z,23.94
2018-01-02T05:36:20.688Z,23.96
2018-01-02T05:36:49.323Z,23.94
2018-01-02T05:37:17.601Z,24
2018-01-02T05:37:46.258Z,23.94
2018-01-02T05:38:14.543Z,23.92
2018-01-02T05:38:43.019Z,24.01
2018-01-02T05:39:11.640Z,23.92
2018-01-02T05:39:40.101Z,23.95
2018-01-02T05:40:08.651Z,23.96
2018-01-02T05:40:37.067Z,23.89
2018-01-02T05:41:05.492Z,23.92
2018-01-02T05:41:33.994Z,23.91
2018-01-02T05:42:02.517Z,23.92
2018-01-02T05:42:30.925Z,23.91
2018-01-02T05:42:59.420Z,23.96
2018-01-02T05:43:28.022Z,23.95
2018-01-02T05:43:56.619Z,23.91
2018-01-02T05:44:25.225Z,23.91
2018-01-02T05:44:53.825Z,23.91
2018-01-02T05:45:22.262Z,23.96
2018-01-02T05:45:50.852Z,23.96
2018-01-02T05:46:19.461Z,23.96
2018-01-02T05:46:47.944Z,23.89
2018-01-02T05:47:16.440Z,23.94
2018-01-02T05:47:44.823Z,23.89
2018-01-02T05:48:13.431Z,23.89
2018-01-02T05:48:41.914Z,23.88
2018-01-02T05:49:10.431Z,23.85
2018-01-02T05:49:38.993Z,23.91
2018-01-02T05:50:07.472Z,23.81
2018-01-02T05:50:36.010Z,23.82
2018-01-02T05:51:04.507Z,23.91
2018-01-02T05:51:33.112Z,23.89
2018-01-02T05:52:01.623Z,23.91
2018-01-02T05:52:29.992Z,23.82
2018-01-02T05:52:58.482Z,23.85
2018-01-02T05:53:26.977Z,23.89
2018-01-02T05:53:55.597Z,23.82
2018-01-02T05:54:23.892Z,23.82
2018-01-02T05:54:52.432Z,23.91
2018-01-02T05:55:20.969Z,23.86
2018-01-02T05:55:49.582Z,23.94
2018-01-02T05:56:18.177Z,23.84
2018-01-02T05:56:46.777Z,23.84
2018-01-02T05:57:15.370Z,23.77
2018-01-02T05:57:43.882Z,23.84
2018-01-02T05:58:12.428Z,23.82
2018-01-02T05:58:40.975Z,23.86
2018-01-02T05:59:09.359Z,23.85
2018-01-02T05:59:38.173Z,23.88
2018-01-02T06:00:06.686Z,23.86
2018-01-02T06:00:35.112Z,23.86
2018-01-02T06:01:03.749Z,23.76
2018-01-02T06:01:32.381Z,23.86
2018-01-02T06:02:00.934Z,23.77
2018-01-02T06:02:29.467Z,23.88
2018-01-02T06:02:58.079Z,23.84
2018-01-02T06:03:26.714Z,23.74
2018-01-02T06:03:55.287Z,23.79
2018-01-02T06:04:23.920Z,23.81
2018-01-02T06:04:52.497Z,23.79
2018-01-02T06:05:21.094Z,23.71
2018-01-02T06:05:49.643Z,23.88
2018-01-02T06:06:18.129Z,23.82
2018-01-02T06:06:46.541Z,23.79
2018-01-02T06:07:15.048Z,23.71
2018-01-02T06:07:43.545Z,23.73
2018-01-02T06:08:12.100Z,23.71
2018-01-02T06:08:40.742Z,23.79